sensor_id;sensor_type;location;lat;lon;timestamp;temperature;humidity
1103;DHT22;538;42.654;23.376;2023-04-24T07:04:08;15.30;10.30
1103;DHT22;538;42.654;23.376;2023-04-24T07:06:35;15.20;11.00
1103;DHT22;538;42.654;23.376;2023-04-24T07:11:30;15.10;11.00
1103;DHT22;538;42.654;23.376;2023-04-24T07:13:58;15.00;11.00
1103;DHT22;538;42.654;23.376;2023-04-24T07:16:25;15.00;11.40
1103;DHT22;538;42.654;23.376;2023-04-24T07:18:52;15.00;11.50
1103;DHT22;538;42.654;23.376;2023-04-24T07:21:20;14.90;11.50
1103;DHT22;538;42.654;23.376;2023-04-24T07:26:15;15.00;11.90
1103;DHT22;538;42.654;23.376;2023-04-24T07:28:42;15.00;12.00
1103;DHT22;538;42.654;23.376;2023-04-24T07:31:10;15.20;11.90
1103;DHT22;538;42.654;23.376;2023-04-24T07:33:38;15.20;11.90
1103;DHT22;538;42.654;23.376;2023-04-24T07:36:05;15.20;11.30
1103;DHT22;538;42.654;23.376;2023-04-24T07:38:33;15.30;11.40
1103;DHT22;538;42.654;23.376;2023-04-24T07:41:01;15.20;11.10
1103;DHT22;538;42.654;23.376;2023-04-24T07:43:28;15.50;12.00
1103;DHT22;538;42.654;23.376;2023-04-24T07:45:55;15.40;12.70
1103;DHT22;538;42.654;23.376;2023-04-24T07:48:22;15.50;12.50
1103;DHT22;538;42.654;23.376;2023-04-24T07:53:18;15.70;12.50
1103;DHT22;538;42.654;23.376;2023-04-24T07:55:47;15.90;12.00
1103;DHT22;538;42.654;23.376;2023-04-24T07:58:14;15.90;11.80
1103;DHT22;538;42.654;23.376;2023-04-24T08:00:41;16.00;11.30
1103;DHT22;538;42.654;23.376;2023-04-24T08:03:08;16.10;11.10
1103;DHT22;538;42.654;23.376;2023-04-24T08:05:35;16.30;10.90
1103;DHT22;538;42.654;23.376;2023-04-24T08:08:03;16.30;11.00
1103;DHT22;538;42.654;23.376;2023-04-24T08:10:30;16.70;10.90
1103;DHT22;538;42.654;23.376;2023-04-24T08:12:59;16.60;10.90
1103;DHT22;538;42.654;23.376;2023-04-24T08:15:27;16.60;10.80
1103;DHT22;538;42.654;23.376;2023-04-24T08:17:54;16.70;10.50
1103;DHT22;538;42.654;23.376;2023-04-24T08:20:21;16.80;10.30
1103;DHT22;538;42.654;23.376;2023-04-24T08:25:18;17.10;10.90
1103;DHT22;538;42.654;23.376;2023-04-24T08:27:45;17.30;11.00
1103;DHT22;538;42.654;23.376;2023-04-24T08:30:14;17.30;10.60
1103;DHT22;538;42.654;23.376;2023-04-24T08:32:41;17.60;10.90
1103;DHT22;538;42.654;23.376;2023-04-24T08:35:08;17.60;10.40
1103;DHT22;538;42.654;23.376;2023-04-24T08:37:36;17.80;9.60
1103;DHT22;538;42.654;23.376;2023-04-24T08:40:10;17.80;10.10
1103;DHT22;538;42.654;23.376;2023-04-24T08:42:39;18.10;9.90
1103;DHT22;538;42.654;23.376;2023-04-24T08:45:21;18.20;9.30
1103;DHT22;538;42.654;23.376;2023-04-24T08:47:48;18.40;8.90
1103;DHT22;538;42.654;23.376;2023-04-24T08:50:16;18.40;9.30
1103;DHT22;538;42.654;23.376;2023-04-24T08:52:44;18.40;9.00
1103;DHT22;538;42.654;23.376;2023-04-24T08:55:11;18.60;9.30
1103;DHT22;538;42.654;23.376;2023-04-24T08:57:39;18.70;9.10
1103;DHT22;538;42.654;23.376;2023-04-24T09:00:07;18.70;8.30
1103;DHT22;538;42.654;23.376;2023-04-24T09:02:36;19.00;8.40
1103;DHT22;538;42.654;23.376;2023-04-24T09:05:03;19.10;8.10
1103;DHT22;538;42.654;23.376;2023-04-24T09:07:35;19.30;8.70
1103;DHT22;538;42.654;23.376;2023-04-24T09:10:03;19.30;7.60
1103;DHT22;538;42.654;23.376;2023-04-24T09:12:30;19.50;7.70
1103;DHT22;538;42.654;23.376;2023-04-24T09:14:57;19.80;7.90
1103;DHT22;538;42.654;23.376;2023-04-24T09:17:25;20.10;7.70
1103;DHT22;538;42.654;23.376;2023-04-24T09:22:30;20.70;6.50
1103;DHT22;538;42.654;23.376;2023-04-24T09:25:02;20.80;5.90
1103;DHT22;538;42.654;23.376;2023-04-24T09:27:31;21.10;5.60
1103;DHT22;538;42.654;23.376;2023-04-24T09:29:59;21.10;5.20
1103;DHT22;538;42.654;23.376;2023-04-24T09:35:09;21.50;4.70
1103;DHT22;538;42.654;23.376;2023-04-24T09:37:39;21.60;4.10
1103;DHT22;538;42.654;23.376;2023-04-24T09:40:12;21.60;4.90
1103;DHT22;538;42.654;23.376;2023-04-24T09:42:39;21.70;5.10
1103;DHT22;538;42.654;23.376;2023-04-24T09:45:09;21.80;4.70
1103;DHT22;538;42.654;23.376;2023-04-24T09:47:37;22.10;3.80
1103;DHT22;538;42.654;23.376;2023-04-24T09:50:12;22.30;4.30
1103;DHT22;538;42.654;23.376;2023-04-24T09:52:43;22.20;4.10
1103;DHT22;538;42.654;23.376;2023-04-24T09:55:18;22.30;3.00
1103;DHT22;538;42.654;23.376;2023-04-24T09:57:52;22.50;3.20
1103;DHT22;538;42.654;23.376;2023-04-24T10:00:23;22.70;2.20
1103;DHT22;538;42.654;23.376;2023-04-24T10:02:55;22.90;2.20
1103;DHT22;538;42.654;23.376;2023-04-24T10:05:28;22.90;1.60
1103;DHT22;538;42.654;23.376;2023-04-24T10:07:59;23.10;1.00
1103;DHT22;538;42.654;23.376;2023-04-24T10:10:27;23.30;1.10
1103;DHT22;538;42.654;23.376;2023-04-24T10:12:55;23.10;1.00
1103;DHT22;538;42.654;23.376;2023-04-24T10:15:22;23.80;1.70
1103;DHT22;538;42.654;23.376;2023-04-24T10:17:50;23.90;1.20
1103;DHT22;538;42.654;23.376;2023-04-24T10:20:23;24.00;1.00
1103;DHT22;538;42.654;23.376;2023-04-24T10:22:52;24.00;1.00
1103;DHT22;538;42.654;23.376;2023-04-24T10:25:23;24.30;1.50
1103;DHT22;538;42.654;23.376;2023-04-24T10:27:51;24.70;1.00
1103;DHT22;538;42.654;23.376;2023-04-24T10:30:23;25.10;1.00
1103;DHT22;538;42.654;23.376;2023-04-24T10:32:50;25.30;1.00
1103;DHT22;538;42.654;23.376;2023-04-24T10:35:17;25.40;1.00
1103;DHT22;538;42.654;23.376;2023-04-24T10:37:50;25.60;1.00
1103;DHT22;538;42.654;23.376;2023-04-24T10:40:18;26.10;1.00
1103;DHT22;538;42.654;23.376;2023-04-24T10:42:52;26.40;1.00
1103;DHT22;538;42.654;23.376;2023-04-24T10:45:20;26.60;1.00
1103;DHT22;538;42.654;23.376;2023-04-24T10:48:01;26.80;1.00
1103;DHT22;538;42.654;23.376;2023-04-24T10:50:41;26.80;1.00
1103;DHT22;538;42.654;23.376;2023-04-24T10:53:13;26.80;1.00
1103;DHT22;538;42.654;23.376;2023-04-24T10:55:46;26.60;1.00
1103;DHT22;538;42.654;23.376;2023-04-24T10:58:15;26.60;1.00
1103;DHT22;538;42.654;23.376;2023-04-24T11:00:44;26.40;1.00
1103;DHT22;538;42.654;23.376;2023-04-24T11:03:26;26.10;1.00
1103;DHT22;538;42.654;23.376;2023-04-24T11:05:59;26.10;1.00
1103;DHT22;538;42.654;23.376;2023-04-24T11:08:28;26.10;1.00
1103;DHT22;538;42.654;23.376;2023-04-24T11:11:02;25.80;1.00
1103;DHT22;538;42.654;23.376;2023-04-24T11:14:07;25.40;1.00
1103;DHT22;538;42.654;23.376;2023-04-24T11:16:44;25.20;1.00
1103;DHT22;538;42.654;23.376;2023-04-24T11:19:20;24.90;1.00
1103;DHT22;538;42.654;23.376;2023-04-24T11:21:48;24.50;1.00
1103;DHT22;538;42.654;23.376;2023-04-24T11:24:28;24.10;1.00
1103;DHT22;538;42.654;23.376;2023-04-24T11:26:58;23.50;1.00
1103;DHT22;538;42.654;23.376;2023-04-24T11:29:43;23.20;1.00
1103;DHT22;538;42.654;23.376;2023-04-24T11:34:47;21.90;1.00
1103;DHT22;538;42.654;23.376;2023-04-24T11:39:41;21.30;1.00
1103;DHT22;538;42.654;23.376;2023-04-24T11:42:09;20.90;1.00
1103;DHT22;538;42.654;23.376;2023-04-24T11:44:36;20.50;1.00
1103;DHT22;538;42.654;23.376;2023-04-24T11:47:06;20.10;1.00
1103;DHT22;538;42.654;23.376;2023-04-24T11:52:00;19.60;2.00
1103;DHT22;538;42.654;23.376;2023-04-24T11:59:23;19.30;5.90
1103;DHT22;538;42.654;23.376;2023-04-24T12:01:50;19.80;3.80
1103;DHT22;538;42.654;23.376;2023-04-24T12:04:19;20.20;2.00
1103;DHT22;538;42.654;23.376;2023-04-24T12:07:02;20.50;1.00
1103;DHT22;538;42.654;23.376;2023-04-24T12:14:24;20.90;1.00
1103;DHT22;538;42.654;23.376;2023-04-24T12:16:51;20.70;1.00
1103;DHT22;538;42.654;23.376;2023-04-24T12:22:00;20.80;1.30
1103;DHT22;538;42.654;23.376;2023-04-24T12:24:27;20.40;2.30
1103;DHT22;538;42.654;23.376;2023-04-24T12:26:54;20.50;3.40
1103;DHT22;538;42.654;23.376;2023-04-24T12:29:22;20.30;3.50
1103;DHT22;538;42.654;23.376;2023-04-24T12:34:18;19.90;3.60
1103;DHT22;538;42.654;23.376;2023-04-24T12:36:47;19.50;3.30
1103;DHT22;538;42.654;23.376;2023-04-24T12:41:54;19.30;4.50
1103;DHT22;538;42.654;23.376;2023-04-24T12:44:29;19.10;4.60
1103;DHT22;538;42.654;23.376;2023-04-24T12:46:57;19.00;5.10
1103;DHT22;538;42.654;23.376;2023-04-24T12:49:24;18.60;4.60
1103;DHT22;538;42.654;23.376;2023-04-24T12:51:53;18.50;4.20
1103;DHT22;538;42.654;23.376;2023-04-24T12:54:20;18.50;4.70
1103;DHT22;538;42.654;23.376;2023-04-24T13:04:11;18.60;4.10
1103;DHT22;538;42.654;23.376;2023-04-24T13:06:38;18.80;4.50
1103;DHT22;538;42.654;23.376;2023-04-24T13:09:06;18.70;4.90
1103;DHT22;538;42.654;23.376;2023-04-24T13:11:35;18.90;5.20
1103;DHT22;538;42.654;23.376;2023-04-24T13:14:02;19.00;6.00
1103;DHT22;538;42.654;23.376;2023-04-24T13:16:30;19.10;5.30
1103;DHT22;538;42.654;23.376;2023-04-24T13:18:57;19.50;5.70
1103;DHT22;538;42.654;23.376;2023-04-24T13:23:53;21.40;4.00
1103;DHT22;538;42.654;23.376;2023-04-24T13:26:21;22.60;1.70
1103;DHT22;538;42.654;23.376;2023-04-24T13:31:16;24.10;1.00
1103;DHT22;538;42.654;23.376;2023-04-24T13:41:06;26.40;1.00
1103;DHT22;538;42.654;23.376;2023-04-24T13:43:35;27.80;1.00
1103;DHT22;538;42.654;23.376;2023-04-24T13:46:02;29.20;1.00
1103;DHT22;538;42.654;23.376;2023-04-24T13:48:30;29.90;1.00
1103;DHT22;538;42.654;23.376;2023-04-24T13:55:52;32.80;1.00
1103;DHT22;538;42.654;23.376;2023-04-24T13:58:19;33.70;1.00
1103;DHT22;538;42.654;23.376;2023-04-24T14:00:47;34.30;1.00
1103;DHT22;538;42.654;23.376;2023-04-24T14:05:42;35.20;1.00
1103;DHT22;538;42.654;23.376;2023-04-24T14:10:37;35.20;1.00
1103;DHT22;538;42.654;23.376;2023-04-24T14:15:32;35.20;1.00
1103;DHT22;538;42.654;23.376;2023-04-24T14:18:01;34.60;1.00
1103;DHT22;538;42.654;23.376;2023-04-24T14:22:56;33.00;1.00
1103;DHT22;538;42.654;23.376;2023-04-24T14:27:52;32.60;1.00
1103;DHT22;538;42.654;23.376;2023-04-24T14:30:19;32.30;1.00
1103;DHT22;538;42.654;23.376;2023-04-24T14:32:46;32.00;1.00
1103;DHT22;538;42.654;23.376;2023-04-24T14:35:14;31.80;1.00
1103;DHT22;538;42.654;23.376;2023-04-24T14:40:10;31.80;1.00
1103;DHT22;538;42.654;23.376;2023-04-24T14:47:33;30.40;1.00
1103;DHT22;538;42.654;23.376;2023-04-24T14:50:00;29.60;1.00
1103;DHT22;538;42.654;23.376;2023-04-24T14:52:29;28.60;1.00
1103;DHT22;538;42.654;23.376;2023-04-24T14:57:23;26.20;1.00
1103;DHT22;538;42.654;23.376;2023-04-24T14:59:50;25.30;1.00
1103;DHT22;538;42.654;23.376;2023-04-24T15:02:17;24.40;1.00
1103;DHT22;538;42.654;23.376;2023-04-24T15:07:12;22.80;1.00
1103;DHT22;538;42.654;23.376;2023-04-24T15:09:41;22.40;3.00
1103;DHT22;538;42.654;23.376;2023-04-24T15:12:08;21.80;5.30
1103;DHT22;538;42.654;23.376;2023-04-24T15:14:37;21.40;5.00
1103;DHT22;538;42.654;23.376;2023-04-24T15:17:04;21.00;5.70
1103;DHT22;538;42.654;23.376;2023-04-24T15:19:31;20.60;6.30
1103;DHT22;538;42.654;23.376;2023-04-24T15:24:26;20.40;7.30
1103;DHT22;538;42.654;23.376;2023-04-24T15:26:55;20.20;6.80
1103;DHT22;538;42.654;23.376;2023-04-24T15:34:17;19.70;7.80
1103;DHT22;538;42.654;23.376;2023-04-24T15:36:44;19.80;8.70
1103;DHT22;538;42.654;23.376;2023-04-24T15:41:39;19.90;9.20
1103;DHT22;538;42.654;23.376;2023-04-24T15:44:07;19.80;9.10
1103;DHT22;538;42.654;23.376;2023-04-24T15:46:35;20.00;9.00
1103;DHT22;538;42.654;23.376;2023-04-24T15:49:02;19.90;9.30
1103;DHT22;538;42.654;23.376;2023-04-24T15:58:52;19.50;10.30
1103;DHT22;538;42.654;23.376;2023-04-24T16:01:21;19.40;10.40
1103;DHT22;538;42.654;23.376;2023-04-24T16:03:48;19.40;10.70
1103;DHT22;538;42.654;23.376;2023-04-24T16:11:09;19.00;11.90
1103;DHT22;538;42.654;23.376;2023-04-24T16:13:37;18.80;12.10
1103;DHT22;538;42.654;23.376;2023-04-24T16:18:34;18.50;12.60
1103;DHT22;538;42.654;23.376;2023-04-24T16:21:01;18.70;13.20
1103;DHT22;538;42.654;23.376;2023-04-24T16:23:28;18.40;13.60
1103;DHT22;538;42.654;23.376;2023-04-24T16:25:56;18.40;15.20
1103;DHT22;538;42.654;23.376;2023-04-24T16:30:51;17.90;18.60
1103;DHT22;538;42.654;23.376;2023-04-24T16:35:48;17.70;20.00
1103;DHT22;538;42.654;23.376;2023-04-24T16:38:15;17.60;20.60
1103;DHT22;538;42.654;23.376;2023-04-24T16:40:42;17.60;22.20
1103;DHT22;538;42.654;23.376;2023-04-24T16:45:38;17.40;24.30
1103;DHT22;538;42.654;23.376;2023-04-24T16:50:35;17.10;25.70
1103;DHT22;538;42.654;23.376;2023-04-24T16:53:04;17.00;27.10
1103;DHT22;538;42.654;23.376;2023-04-24T16:55:31;17.00;27.90
1103;DHT22;538;42.654;23.376;2023-04-24T17:05:20;16.60;26.90
1103;DHT22;538;42.654;23.376;2023-04-24T17:07:48;16.40;27.80
1103;DHT22;538;42.654;23.376;2023-04-24T17:10:16;16.20;29.70
1103;DHT22;538;42.654;23.376;2023-04-24T17:15:11;16.00;41.10
1103;DHT22;538;42.654;23.376;2023-04-24T17:17:38;15.90;44.70
1103;DHT22;538;42.654;23.376;2023-04-24T17:20:08;15.90;47.90
1103;DHT22;538;42.654;23.376;2023-04-24T17:22:35;16.00;51.30
1103;DHT22;538;42.654;23.376;2023-04-24T17:25:03;16.00;52.10
1103;DHT22;538;42.654;23.376;2023-04-24T17:27:31;15.90;54.10
1103;DHT22;538;42.654;23.376;2023-04-24T17:29:59;16.10;54.20
1103;DHT22;538;42.654;23.376;2023-04-24T17:32:27;16.00;55.00
1103;DHT22;538;42.654;23.376;2023-04-24T17:34:54;15.90;53.50
1103;DHT22;538;42.654;23.376;2023-04-24T17:37:21;16.10;51.40
1103;DHT22;538;42.654;23.376;2023-04-24T17:39:49;15.90;45.20
1103;DHT22;538;42.654;23.376;2023-04-24T17:42:16;15.80;44.90
1103;DHT22;538;42.654;23.376;2023-04-24T17:44:45;15.60;47.70
1103;DHT22;538;42.654;23.376;2023-04-24T17:49:40;15.50;56.20
1103;DHT22;538;42.654;23.376;2023-04-24T17:52:08;15.30;55.70
1103;DHT22;538;42.654;23.376;2023-04-24T17:57:03;15.30;58.60
1103;DHT22;538;42.654;23.376;2023-04-24T17:59:30;15.20;57.80
1103;DHT22;538;42.654;23.376;2023-04-24T18:01:59;15.10;56.10
1103;DHT22;538;42.654;23.376;2023-04-24T18:04:27;15.00;53.70
1103;DHT22;538;42.654;23.376;2023-04-24T18:11:49;15.00;58.20
1103;DHT22;538;42.654;23.376;2023-04-24T18:14:16;14.90;59.80
1103;DHT22;538;42.654;23.376;2023-04-24T18:16:43;14.80;60.50
1103;DHT22;538;42.654;23.376;2023-04-24T18:19:11;14.70;62.60
1103;DHT22;538;42.654;23.376;2023-04-24T18:21:39;14.60;65.00
1103;DHT22;538;42.654;23.376;2023-04-24T18:26:34;14.40;66.40
1103;DHT22;538;42.654;23.376;2023-04-24T18:29:01;14.40;59.20
1103;DHT22;538;42.654;23.376;2023-04-24T18:31:28;14.20;55.40
1103;DHT22;538;42.654;23.376;2023-04-24T18:33:57;14.20;57.80
1103;DHT22;538;42.654;23.376;2023-04-24T18:36:25;14.10;61.80
1103;DHT22;538;42.654;23.376;2023-04-24T18:38:52;14.10;65.90
1103;DHT22;538;42.654;23.376;2023-04-24T18:41:20;14.30;68.10
1103;DHT22;538;42.654;23.376;2023-04-24T18:43:47;14.30;71.20
1103;DHT22;538;42.654;23.376;2023-04-24T18:46:16;14.30;71.10
1103;DHT22;538;42.654;23.376;2023-04-24T18:51:11;14.00;75.70
1103;DHT22;538;42.654;23.376;2023-04-24T18:53:39;14.10;76.80
1103;DHT22;538;42.654;23.376;2023-04-24T18:58:34;14.20;82.10
1103;DHT22;538;42.654;23.376;2023-04-24T19:01:01;14.20;82.70
1103;DHT22;538;42.654;23.376;2023-04-24T19:03:28;14.00;84.40
1103;DHT22;538;42.654;23.376;2023-04-24T19:05:56;14.10;84.20
1103;DHT22;538;42.654;23.376;2023-04-24T19:10:53;14.00;89.20
1103;DHT22;538;42.654;23.376;2023-04-24T19:13:20;14.00;90.30
1103;DHT22;538;42.654;23.376;2023-04-24T19:15:47;13.80;88.90
1103;DHT22;538;42.654;23.376;2023-04-24T19:23:10;14.00;85.00
1103;DHT22;538;42.654;23.376;2023-04-24T19:28:06;14.00;79.30
1103;DHT22;538;42.654;23.376;2023-04-24T19:30:34;14.00;76.90
1103;DHT22;538;42.654;23.376;2023-04-24T19:33:06;14.10;74.90
1103;DHT22;538;42.654;23.376;2023-04-24T19:38:02;14.20;71.00
1103;DHT22;538;42.654;23.376;2023-04-24T19:40:29;14.20;71.40
1103;DHT22;538;42.654;23.376;2023-04-24T19:42:57;14.20;70.60
1103;DHT22;538;42.654;23.376;2023-04-24T19:45:25;14.20;70.30
1103;DHT22;538;42.654;23.376;2023-04-24T19:50:21;14.20;69.60
1103;DHT22;538;42.654;23.376;2023-04-24T19:52:48;14.30;66.30
1103;DHT22;538;42.654;23.376;2023-04-24T19:57:43;14.20;65.20
1103;DHT22;538;42.654;23.376;2023-04-24T20:00:11;14.00;64.90
1103;DHT22;538;42.654;23.376;2023-04-24T20:02:40;13.90;63.20
1103;DHT22;538;42.654;23.376;2023-04-24T20:05:07;13.70;34.00
1103;DHT22;538;42.654;23.376;2023-04-24T20:10:02;13.50;28.00
1103;DHT22;538;42.654;23.376;2023-04-24T20:14:57;13.50;28.40
1103;DHT22;538;42.654;23.376;2023-04-24T20:19:53;13.30;32.70
1103;DHT22;538;42.654;23.376;2023-04-24T20:22:20;13.40;37.20
1103;DHT22;538;42.654;23.376;2023-04-24T20:27:16;13.20;32.20
1103;DHT22;538;42.654;23.376;2023-04-24T20:29:43;13.10;35.40
1103;DHT22;538;42.654;23.376;2023-04-24T20:32:10;13.00;38.10
1103;DHT22;538;42.654;23.376;2023-04-24T20:37:06;13.00;44.20
1103;DHT22;538;42.654;23.376;2023-04-24T20:39:33;13.10;47.40
1103;DHT22;538;42.654;23.376;2023-04-24T20:51:51;13.30;54.20
1103;DHT22;538;42.654;23.376;2023-04-24T20:54:20;13.10;56.70
1103;DHT22;538;42.654;23.376;2023-04-24T20:56:47;13.10;58.90
1103;DHT22;538;42.654;23.376;2023-04-24T21:09:05;13.10;62.00
1103;DHT22;538;42.654;23.376;2023-04-24T21:11:34;13.00;62.70
1103;DHT22;538;42.654;23.376;2023-04-24T21:14:01;13.10;64.40
1103;DHT22;538;42.654;23.376;2023-04-24T21:16:28;13.10;64.70
1103;DHT22;538;42.654;23.376;2023-04-24T21:18:55;13.10;61.20
1103;DHT22;538;42.654;23.376;2023-04-24T21:26:17;13.00;66.10
1103;DHT22;538;42.654;23.376;2023-04-24T21:28:45;13.20;68.10
1103;DHT22;538;42.654;23.376;2023-04-24T21:36:08;13.10;69.50
1103;DHT22;538;42.654;23.376;2023-04-24T21:38:35;12.90;70.20
1103;DHT22;538;42.654;23.376;2023-04-24T21:41:04;13.10;71.40
1103;DHT22;538;42.654;23.376;2023-04-24T21:46:00;13.10;71.90
1103;DHT22;538;42.654;23.376;2023-04-24T21:48:28;13.20;72.00
1103;DHT22;538;42.654;23.376;2023-04-24T21:50:55;13.20;71.80
1103;DHT22;538;42.654;23.376;2023-04-24T21:53:23;13.30;70.70
1103;DHT22;538;42.654;23.376;2023-04-24T21:55:50;13.30;69.70
1103;DHT22;538;42.654;23.376;2023-04-24T21:58:17;13.20;69.60
1103;DHT22;538;42.654;23.376;2023-04-24T22:03:19;13.50;68.20
1103;DHT22;538;42.654;23.376;2023-04-24T22:05:46;13.00;65.90
1103;DHT22;538;42.654;23.376;2023-04-24T22:08:13;12.90;67.70
1103;DHT22;538;42.654;23.376;2023-04-24T22:13:08;13.00;71.30
1103;DHT22;538;42.654;23.376;2023-04-24T22:15:35;12.80;71.80
1103;DHT22;538;42.654;23.376;2023-04-24T22:18:02;12.90;73.30
1103;DHT22;538;42.654;23.376;2023-04-24T22:20:32;12.90;74.60
1103;DHT22;538;42.654;23.376;2023-04-24T22:23:00;13.00;74.90
1103;DHT22;538;42.654;23.376;2023-04-24T22:25:27;12.90;74.00
1103;DHT22;538;42.654;23.376;2023-04-24T22:27:54;13.10;72.90
1103;DHT22;538;42.654;23.376;2023-04-24T22:30:21;13.00;71.40
1103;DHT22;538;42.654;23.376;2023-04-24T22:32:48;13.00;71.00
1103;DHT22;538;42.654;23.376;2023-04-24T22:35:16;13.00;71.10
1103;DHT22;538;42.654;23.376;2023-04-24T22:37:45;13.00;71.60
1103;DHT22;538;42.654;23.376;2023-04-24T22:40:15;12.90;70.90
1103;DHT22;538;42.654;23.376;2023-04-24T22:42:42;12.90;70.50
1103;DHT22;538;42.654;23.376;2023-04-24T22:45:10;13.10;69.80
1103;DHT22;538;42.654;23.376;2023-04-24T22:50:06;12.90;67.50
1103;DHT22;538;42.654;23.376;2023-04-24T22:52:35;13.00;67.00
1103;DHT22;538;42.654;23.376;2023-04-24T22:55:04;13.10;65.30
1103;DHT22;538;42.654;23.376;2023-04-24T22:57:31;13.10;66.60
1103;DHT22;538;42.654;23.376;2023-04-24T22:59:59;13.10;66.50
1103;DHT22;538;42.654;23.376;2023-04-24T23:02:26;12.90;65.70
1103;DHT22;538;42.654;23.376;2023-04-24T23:04:54;12.90;65.10
1103;DHT22;538;42.654;23.376;2023-04-24T23:07:21;13.10;66.60
1103;DHT22;538;42.654;23.376;2023-04-24T23:09:48;12.90;67.40
1103;DHT22;538;42.654;23.376;2023-04-24T23:12:16;12.90;61.80
1103;DHT22;538;42.654;23.376;2023-04-24T23:14:43;12.90;62.80
1103;DHT22;538;42.654;23.376;2023-04-24T23:17:10;12.90;66.40
1103;DHT22;538;42.654;23.376;2023-04-24T23:19:37;12.60;68.90
1103;DHT22;538;42.654;23.376;2023-04-24T23:22:04;12.60;71.50
1103;DHT22;538;42.654;23.376;2023-04-24T23:29:28;12.60;76.80
1103;DHT22;538;42.654;23.376;2023-04-24T23:31:55;12.50;78.20
1103;DHT22;538;42.654;23.376;2023-04-24T23:34:22;12.60;76.90
1103;DHT22;538;42.654;23.376;2023-04-24T23:39:17;12.50;78.00
1103;DHT22;538;42.654;23.376;2023-04-24T23:41:44;12.60;78.70
1103;DHT22;538;42.654;23.376;2023-04-24T23:44:12;12.60;79.40
1103;DHT22;538;42.654;23.376;2023-04-24T23:46:40;12.60;80.40
1103;DHT22;538;42.654;23.376;2023-04-24T23:58:57;12.80;79.80
